createdAt,value
2019-05-29T00:01:47.083Z,3.17
2019-05-29T00:03:51.911Z,3.37
2019-05-29T00:05:56.691Z,3.60
2019-05-29T00:08:01.472Z,3.63
2019-05-29T00:10:08.809Z,3.10
2019-05-29T00:12:19.203Z,3.03
2019-05-29T00:14:27.179Z,2.90
2019-05-29T00:16:26.358Z,3.10
2019-05-29T00:18:31.315Z,2.90
2019-05-29T00:20:36.183Z,3.20
2019-05-29T00:22:41.732Z,3.30
2019-05-29T00:24:46.574Z,3.00
2019-05-29T00:26:51.455Z,3.13
2019-05-29T00:28:56.323Z,3.17
2019-05-29T00:31:01.065Z,3.00
2019-05-29T00:33:06.223Z,3.40
2019-05-29T00:35:12.288Z,2.80
2019-05-29T00:37:17.229Z,3.77
2019-05-29T00:39:22.528Z,3.27
2019-05-29T00:41:27.358Z,3.67
2019-05-29T00:43:32.203Z,3.40
2019-05-29T00:45:37.011Z,3.63
2019-05-29T00:47:42.466Z,3.60
2019-05-29T00:49:47.391Z,4.10
2019-05-29T00:51:52.153Z,4.00
2019-05-29T00:53:57.130Z,3.60
2019-05-29T00:56:01.979Z,4.10
2019-05-29T00:58:06.879Z,3.70
2019-05-29T01:00:13.158Z,4.03
2019-05-29T01:02:19.716Z,3.50
2019-05-29T01:04:24.736Z,3.50
2019-05-29T01:06:30.547Z,3.77
2019-05-29T01:08:35.421Z,3.87
2019-05-29T01:10:40.173Z,3.60
2019-05-29T01:12:45.038Z,4.20
2019-05-29T01:14:50.593Z,4.10
2019-05-29T01:16:55.904Z,4.03
2019-05-29T01:19:20.260Z,4.17
2019-05-29T01:21:25.606Z,4.20
2019-05-29T01:23:30.825Z,4.90
2019-05-29T01:25:35.589Z,4.87
2019-05-29T01:27:40.546Z,5.07
2019-05-29T01:29:45.479Z,4.47
2019-05-29T01:31:50.331Z,4.10
2019-05-29T01:33:55.282Z,5.10
2019-05-29T01:36:00.115Z,4.77
2019-05-29T01:38:04.929Z,5.40
2019-05-29T01:40:19.271Z,4.43
2019-05-29T01:42:17.272Z,4.63
2019-05-29T01:44:22.032Z,5.00
2019-05-29T01:46:27.803Z,4.77
2019-05-29T01:48:32.808Z,4.80
2019-05-29T01:50:37.587Z,4.43
2019-05-29T01:52:42.428Z,5.37
2019-05-29T01:54:47.642Z,5.50
2019-05-29T01:56:52.571Z,4.70
2019-05-29T01:58:57.341Z,4.60
2019-05-29T02:01:02.219Z,4.70
2019-05-29T02:03:07.453Z,4.60
2019-05-29T02:05:12.638Z,4.70
2019-05-29T02:07:18.011Z,4.07
2019-05-29T02:09:24.258Z,4.63
2019-05-29T02:11:32.081Z,4.80
2019-05-29T02:13:35.556Z,4.10
2019-05-29T02:15:40.280Z,4.73
2019-05-29T02:17:45.439Z,4.27
2019-05-29T02:19:50.679Z,4.20
2019-05-29T02:21:55.894Z,4.43
2019-05-29T02:24:00.674Z,4.27
2019-05-29T02:26:05.578Z,4.37
2019-05-29T02:28:10.323Z,4.50
2019-05-29T02:30:17.870Z,4.20
2019-05-29T02:32:23.484Z,4.00
2019-05-29T02:34:29.902Z,3.90
2019-05-29T02:36:34.860Z,4.93
2019-05-29T02:38:39.681Z,4.40
2019-05-29T02:40:44.761Z,4.17
2019-05-29T02:42:49.535Z,4.10
2019-05-29T02:44:54.297Z,4.20
2019-05-29T02:46:59.447Z,4.50
2019-05-29T02:49:04.406Z,4.20
2019-05-29T02:51:12.159Z,4.00
2019-05-29T02:53:16.545Z,4.27
2019-05-29T02:55:22.571Z,3.90
2019-05-29T02:57:28.964Z,4.00
2019-05-29T02:59:34.660Z,4.20
2019-05-29T03:01:40.181Z,4.10
2019-05-29T03:03:45.342Z,4.90
2019-05-29T03:05:50.701Z,4.40
2019-05-29T03:07:55.823Z,4.80
2019-05-29T03:10:00.737Z,4.70
2019-05-29T03:12:05.638Z,5.83
2019-05-29T03:14:10.928Z,4.27
2019-05-29T03:16:15.770Z,5.07
2019-05-29T03:18:20.657Z,4.73
2019-05-29T03:20:25.986Z,4.90
2019-05-29T03:22:33.138Z,5.70
2019-05-29T03:24:38.511Z,4.47
2019-05-29T03:26:44.761Z,5.13
2019-05-29T03:28:49.921Z,4.70
2019-05-29T03:30:54.665Z,4.40
2019-05-29T03:32:59.530Z,4.80
2019-05-29T03:35:04.560Z,4.67
2019-05-29T03:37:09.999Z,4.90
2019-05-29T03:39:14.898Z,4.57
2019-05-29T03:41:20.585Z,4.60
2019-05-29T03:43:26.166Z,4.70
2019-05-29T03:45:35.760Z,4.60
2019-05-29T03:47:41.144Z,5.30
2019-05-29T03:49:46.257Z,5.00
2019-05-29T03:51:51.073Z,4.87
2019-05-29T03:53:55.878Z,5.20
2019-05-29T03:56:00.740Z,5.00
2019-05-29T03:58:05.628Z,6.07
2019-05-29T04:00:12.063Z,5.63
2019-05-29T04:02:16.819Z,5.10
2019-05-29T04:04:21.643Z,5.77
2019-05-29T04:06:26.989Z,5.93
2019-05-29T04:08:33.594Z,6.03
2019-05-29T04:10:39.880Z,6.40
2019-05-29T04:12:44.797Z,8.23
2019-05-29T04:14:50.852Z,6.40
2019-05-29T04:16:59.737Z,4.93
2019-05-29T04:19:04.960Z,6.70
2019-05-29T04:21:12.513Z,10.70
2019-05-29T04:23:19.772Z,12.73
2019-05-29T04:25:30.198Z,16.02
2019-05-29T04:27:38.294Z,10.67
2019-05-29T04:29:44.181Z,8.00
2019-05-29T04:31:49.074Z,8.63
2019-05-29T04:33:53.944Z,10.30
2019-05-29T04:35:59.143Z,11.67
2019-05-29T04:38:04.604Z,9.13
2019-05-29T04:40:09.558Z,7.57
2019-05-29T04:42:14.314Z,5.93
2019-05-29T04:44:19.075Z,5.60
2019-05-29T04:46:23.839Z,6.10
2019-05-29T04:48:29.464Z,5.67
2019-05-29T04:50:36.446Z,5.60
2019-05-29T04:52:41.752Z,5.70
2019-05-29T04:54:46.892Z,6.00
2019-05-29T04:56:51.685Z,5.75
2019-05-29T04:58:56.471Z,5.83
2019-05-29T05:01:01.268Z,6.30
2019-05-29T05:03:06.380Z,5.20
2019-05-29T05:05:11.937Z,5.37
2019-05-29T05:07:17.192Z,5.37
2019-05-29T05:09:22.062Z,5.83
2019-05-29T05:11:27.976Z,5.50
2019-05-29T05:13:33.475Z,5.67
2019-05-29T05:15:40.122Z,5.53
2019-05-29T05:17:45.144Z,5.30
2019-05-29T05:19:50.883Z,5.63
2019-05-29T05:21:55.661Z,4.70
2019-05-29T05:24:00.649Z,4.80
2019-05-29T05:26:06.614Z,5.07
2019-05-29T05:28:11.465Z,5.03
2019-05-29T05:30:17.616Z,4.30
2019-05-29T05:32:22.436Z,5.07
2019-05-29T05:34:27.243Z,4.47
2019-05-29T05:36:32.679Z,5.03
2019-05-29T05:38:38.797Z,4.95
2019-05-29T05:40:43.757Z,4.80
2019-05-29T05:42:48.635Z,7.90
2019-05-29T05:44:53.576Z,5.33
2019-05-29T05:46:58.819Z,4.20
2019-05-29T05:49:04.113Z,5.67
2019-05-29T05:51:09.270Z,5.10
2019-05-29T05:53:14.110Z,4.40
2019-05-29T05:55:19.060Z,4.30
2019-05-29T05:57:24.001Z,4.40
2019-05-29T05:59:28.859Z,4.67
2019-05-29T06:01:33.843Z,4.80
2019-05-29T06:03:40.455Z,4.80
2019-05-29T06:05:45.134Z,4.93
2019-05-29T06:07:49.959Z,4.70
2019-05-29T06:09:54.777Z,5.20
2019-05-29T06:11:59.529Z,4.73
2019-05-29T06:14:05.668Z,4.33
2019-05-29T06:16:11.048Z,4.63
2019-05-29T06:18:21.447Z,4.60
2019-05-29T06:20:22.521Z,4.63
2019-05-29T06:22:27.398Z,4.63
2019-05-29T06:24:33.442Z,4.20
2019-05-29T06:26:38.980Z,4.07
2019-05-29T06:28:43.893Z,3.97
2019-05-29T06:30:48.705Z,3.75
2019-05-29T06:32:53.562Z,4.27
2019-05-29T06:34:58.368Z,4.10
2019-05-29T06:37:03.608Z,3.90
2019-05-29T06:39:09.003Z,4.20
2019-05-29T06:41:13.774Z,3.97
2019-05-29T06:43:23.600Z,4.17
2019-05-29T06:45:33.733Z,4.07
2019-05-29T06:47:38.884Z,4.00
2019-05-29T06:49:46.236Z,3.93
2019-05-29T06:51:51.111Z,4.53
2019-05-29T06:53:55.875Z,4.50
2019-05-29T06:58:16.094Z,3.90
2019-05-29T07:00:34.516Z,4.37
2019-05-29T07:02:27.542Z,4.00
2019-05-29T07:04:32.397Z,4.17
2019-05-29T07:06:37.247Z,3.90
2019-05-29T07:08:45.154Z,4.03
2019-05-29T07:10:48.569Z,4.00
2019-05-29T07:12:53.808Z,4.37
2019-05-29T07:14:58.622Z,4.43
2019-05-29T07:17:03.804Z,4.50
2019-05-29T07:19:24.819Z,3.70
2019-05-29T07:21:15.123Z,4.33
2019-05-29T07:23:19.969Z,4.07
2019-05-29T07:25:24.831Z,3.87
2019-05-29T07:27:29.784Z,4.30
2019-05-29T07:29:34.571Z,4.00
2019-05-29T07:31:39.400Z,3.20
2019-05-29T07:33:45.245Z,3.83
2019-05-29T07:35:50.171Z,2.83
2019-05-29T07:37:55.315Z,3.30
2019-05-29T07:40:00.552Z,3.17
2019-05-29T07:42:05.341Z,2.70
2019-05-29T07:44:10.100Z,2.53
2019-05-29T07:46:14.918Z,2.40
2019-05-29T07:48:20.032Z,2.10
2019-05-29T07:50:24.883Z,2.50
2019-05-29T07:52:29.717Z,2.40
2019-05-29T07:54:34.805Z,2.27
2019-05-29T07:56:40.378Z,2.40
2019-05-29T07:58:56.553Z,2.70
2019-05-29T08:01:09.989Z,2.60
2019-05-29T08:02:58.390Z,2.73
2019-05-29T08:05:03.698Z,2.47
2019-05-29T08:07:08.937Z,2.30
2019-05-29T08:09:13.733Z,2.37
2019-05-29T08:11:18.544Z,2.60
2019-05-29T08:13:23.663Z,2.60
2019-05-29T08:15:28.478Z,2.17
2019-05-29T08:17:33.817Z,2.10
2019-05-29T08:19:56.429Z,2.00
2019-05-29T08:21:46.490Z,2.03
2019-05-29T08:23:51.441Z,2.10
2019-05-29T08:25:56.172Z,2.50
2019-05-29T08:28:01.000Z,2.40
2019-05-29T08:30:07.383Z,2.40
2019-05-29T08:32:12.531Z,2.83
2019-05-29T08:34:17.335Z,2.50
2019-05-29T08:36:22.175Z,2.40
2019-05-29T08:38:27.044Z,3.03
2019-05-29T08:40:31.819Z,2.37
2019-05-29T08:42:36.568Z,2.23
2019-05-29T08:44:41.442Z,2.33
2019-05-29T08:47:04.206Z,2.97
2019-05-29T08:48:53.193Z,2.50
2019-05-29T08:50:58.620Z,2.00
2019-05-29T08:53:03.464Z,2.30
2019-05-29T08:55:08.682Z,2.40
2019-05-29T08:57:13.515Z,2.43
2019-05-29T08:59:18.337Z,2.10
2019-05-29T09:01:23.547Z,2.30
2019-05-29T09:03:28.326Z,2.40
2019-05-29T09:05:33.522Z,2.60
2019-05-29T09:07:38.411Z,2.23
2019-05-29T09:09:43.214Z,2.63
2019-05-29T09:11:49.863Z,1.87
2019-05-29T09:13:54.513Z,2.00
2019-05-29T09:15:59.326Z,1.90
2019-05-29T09:18:04.229Z,1.90
2019-05-29T09:20:26.087Z,1.77
2019-05-29T09:22:16.511Z,2.33
2019-05-29T09:24:21.518Z,1.90
2019-05-29T09:26:26.306Z,2.27
2019-05-29T09:28:29.259Z,2.10
2019-05-29T09:30:34.107Z,1.90
2019-05-29T09:32:50.587Z,2.27
2019-05-29T09:34:47.641Z,2.50
2019-05-29T09:36:54.657Z,2.50
2019-05-29T09:38:58.702Z,1.87
2019-05-29T09:41:03.885Z,1.70
2019-05-29T09:43:09.076Z,2.00
2019-05-29T09:45:14.967Z,2.17
2019-05-29T09:47:22.210Z,2.80
2019-05-29T09:49:27.122Z,2.07
2019-05-29T09:51:31.967Z,2.33
2019-05-29T09:53:37.107Z,2.20
2019-05-29T09:55:42.389Z,2.43
2019-05-29T09:57:47.223Z,1.93
2019-05-29T09:59:53.760Z,1.43
2019-05-29T10:02:02.443Z,2.10
2019-05-29T10:04:06.226Z,2.27
2019-05-29T10:06:11.276Z,1.80
2019-05-29T10:08:17.058Z,2.13
2019-05-29T10:10:25.340Z,2.00
2019-05-29T10:12:30.106Z,1.90
2019-05-29T10:14:35.014Z,1.80
2019-05-29T10:16:39.804Z,2.17
2019-05-29T10:18:44.773Z,1.87
2019-05-29T10:20:50.113Z,2.30
2019-05-29T10:22:55.689Z,2.13
2019-05-29T10:25:02.002Z,2.33
2019-05-29T10:27:07.368Z,2.17
2019-05-29T10:29:12.445Z,2.10
2019-05-29T10:31:17.290Z,2.27
2019-05-29T10:33:21.970Z,2.10
2019-05-29T10:35:27.006Z,2.30
2019-05-29T10:37:31.852Z,2.30
2019-05-29T10:39:37.023Z,2.10
2019-05-29T10:41:42.671Z,2.10
2019-05-29T10:43:47.443Z,2.50
2019-05-29T10:45:53.887Z,2.27
2019-05-29T10:48:01.551Z,2.40
2019-05-29T10:50:07.176Z,2.27
2019-05-29T10:52:16.602Z,2.13
2019-05-29T10:54:18.560Z,2.23
2019-05-29T10:56:23.728Z,2.50
2019-05-29T10:58:28.973Z,2.57
2019-05-29T11:00:33.708Z,2.53
2019-05-29T11:02:38.935Z,2.50
2019-05-29T11:04:47.581Z,2.47
2019-05-29T11:06:50.290Z,2.27
2019-05-29T11:08:56.367Z,2.17
2019-05-29T11:11:01.264Z,1.97
2019-05-29T11:13:06.954Z,1.85
2019-05-29T11:15:21.584Z,2.17
2019-05-29T11:17:18.712Z,2.20
2019-05-29T11:19:26.082Z,2.37
2019-05-29T11:21:30.005Z,2.40
2019-05-29T11:23:34.834Z,2.43
2019-05-29T11:25:39.585Z,2.70
2019-05-29T11:27:44.459Z,2.63
2019-05-29T11:29:50.460Z,2.50
2019-05-29T11:31:55.350Z,2.53
2019-05-29T11:34:00.194Z,2.50
2019-05-29T11:36:10.701Z,2.40
2019-05-29T11:38:11.840Z,2.60
2019-05-29T11:40:16.891Z,2.83
2019-05-29T11:42:27.414Z,1.97
2019-05-29T11:44:28.790Z,2.60
2019-05-29T11:46:33.642Z,2.23
2019-05-29T11:48:38.418Z,2.10
2019-05-29T11:50:43.611Z,2.03
2019-05-29T11:52:48.402Z,2.30
2019-05-29T11:54:56.538Z,2.80
2019-05-29T11:56:59.826Z,2.60
2019-05-29T11:59:05.034Z,2.27
2019-05-29T12:01:09.877Z,2.67
2019-05-29T12:03:14.730Z,2.80
2019-05-29T12:05:19.801Z,2.67
2019-05-29T12:07:24.636Z,2.60
2019-05-29T12:09:33.259Z,2.60
2019-05-29T12:11:36.331Z,2.70
2019-05-29T12:13:41.087Z,2.90
2019-05-29T12:15:45.854Z,3.57
2019-05-29T12:18:05.763Z,2.63
2019-05-29T12:19:59.870Z,3.07
2019-05-29T12:22:03.767Z,2.70
2019-05-29T12:24:08.594Z,2.30
2019-05-29T12:26:22.378Z,2.50
2019-05-29T12:28:19.816Z,2.77
2019-05-29T12:30:25.519Z,2.33
2019-05-29T12:32:30.399Z,2.63
2019-05-29T12:34:35.834Z,2.80
2019-05-29T12:36:41.005Z,2.50
2019-05-29T12:38:45.770Z,2.53
2019-05-29T12:40:53.338Z,2.60
2019-05-29T12:43:01.839Z,2.27
2019-05-29T12:45:07.687Z,2.20
2019-05-29T12:47:13.013Z,2.20
2019-05-29T12:49:17.798Z,2.50
2019-05-29T12:51:23.795Z,2.50
2019-05-29T12:53:31.190Z,2.60
2019-05-29T12:55:35.544Z,2.40
2019-05-29T12:57:40.758Z,2.50
2019-05-29T12:59:45.551Z,2.30
2019-05-29T13:01:50.357Z,2.50
2019-05-29T13:03:58.628Z,2.43
2019-05-29T13:06:04.485Z,3.10
2019-05-29T13:08:09.566Z,2.20
2019-05-29T13:10:29.408Z,2.60
2019-05-29T13:12:21.253Z,2.40
2019-05-29T13:14:26.404Z,1.80
2019-05-29T13:16:31.186Z,3.13
2019-05-29T13:18:35.998Z,2.53
2019-05-29T13:20:40.851Z,2.70
2019-05-29T13:22:46.038Z,2.70
2019-05-29T13:24:52.686Z,2.10
2019-05-29T13:26:57.615Z,1.80
2019-05-29T13:29:03.824Z,1.67
2019-05-29T13:31:09.188Z,1.97
2019-05-29T13:33:14.374Z,1.90
2019-05-29T13:35:22.465Z,2.17
2019-05-29T13:37:27.590Z,2.30
2019-05-29T13:39:32.332Z,1.93
2019-05-29T13:41:37.103Z,1.77
2019-05-29T13:43:41.893Z,1.90
2019-05-29T13:45:46.996Z,1.97
2019-05-29T13:47:55.033Z,2.00
2019-05-29T13:50:04.371Z,2.30
2019-05-29T13:52:12.214Z,2.80
2019-05-29T13:54:18.003Z,2.33
2019-05-29T13:56:24.275Z,1.90
2019-05-29T13:58:28.823Z,2.17
2019-05-29T14:00:34.937Z,2.00
2019-05-29T14:02:40.103Z,2.13
2019-05-29T14:04:45.279Z,2.80
2019-05-29T14:06:52.950Z,2.30
2019-05-29T14:08:58.762Z,2.13
2019-05-29T14:11:04.967Z,2.70
2019-05-29T14:13:10.039Z,2.30
2019-05-29T14:15:15.070Z,2.50
2019-05-29T14:17:19.886Z,2.40
2019-05-29T14:19:25.086Z,3.47
2019-05-29T14:21:29.867Z,2.70
2019-05-29T14:23:39.178Z,3.17
2019-05-29T14:25:41.848Z,2.83
2019-05-29T14:27:47.126Z,2.70
2019-05-29T14:29:52.022Z,1.97
2019-05-29T14:31:57.160Z,2.60
2019-05-29T14:34:03.045Z,2.43
2019-05-29T14:36:07.883Z,2.93
2019-05-29T14:38:15.044Z,2.43
2019-05-29T14:40:19.787Z,2.33
2019-05-29T14:42:24.561Z,3.13
2019-05-29T14:44:29.354Z,2.60
2019-05-29T14:46:34.146Z,2.67
2019-05-29T14:48:38.918Z,2.70
2019-05-29T14:50:43.942Z,2.80
2019-05-29T14:52:49.290Z,2.77
2019-05-29T14:54:55.154Z,1.90
2019-05-29T14:57:00.206Z,2.13
2019-05-29T14:59:07.446Z,2.17
2019-05-29T15:01:13.328Z,2.10
2019-05-29T15:03:18.291Z,2.40
2019-05-29T15:05:23.612Z,2.30
2019-05-29T15:07:29.445Z,2.47
2019-05-29T15:09:34.567Z,2.07
2019-05-29T15:11:39.719Z,1.67
2019-05-29T15:13:44.534Z,1.90
2019-05-29T15:15:49.460Z,2.30
2019-05-29T15:17:54.194Z,1.93
2019-05-29T15:19:58.958Z,2.00
2019-05-29T15:22:04.979Z,1.70
2019-05-29T15:24:10.021Z,2.30
2019-05-29T15:26:15.736Z,1.87
2019-05-29T15:28:20.674Z,2.20
2019-05-29T15:30:25.481Z,2.10
2019-05-29T15:32:30.209Z,2.20
2019-05-29T15:34:35.377Z,2.30
2019-05-29T15:36:41.018Z,1.90
2019-05-29T15:38:45.807Z,2.37
2019-05-29T15:40:51.095Z,4.30
2019-05-29T15:42:56.256Z,3.60
2019-05-29T15:45:01.086Z,2.30
2019-05-29T15:47:06.879Z,2.20
2019-05-29T15:49:12.941Z,2.03
2019-05-29T15:51:21.637Z,1.90
2019-05-29T15:53:24.555Z,2.20
2019-05-29T15:55:34.678Z,2.47
2019-05-29T15:57:36.187Z,2.70
2019-05-29T15:59:41.455Z,1.93
2019-05-29T16:01:46.735Z,3.63
2019-05-29T16:03:51.602Z,2.13
2019-05-29T16:05:56.490Z,2.37
2019-05-29T16:08:01.320Z,2.27
2019-05-29T16:10:08.138Z,2.70
2019-05-29T16:12:14.652Z,2.60
2019-05-29T16:14:19.659Z,2.60
2019-05-29T16:16:25.389Z,2.77
2019-05-29T16:18:30.266Z,2.40
2019-05-29T16:20:35.251Z,2.50
2019-05-29T16:22:40.110Z,2.60
2019-05-29T16:24:45.333Z,2.77
2019-05-29T16:26:50.168Z,2.60
2019-05-29T16:28:55.103Z,2.13
2019-05-29T16:31:00.267Z,2.37
2019-05-29T16:33:05.234Z,2.23
2019-05-29T16:35:11.186Z,2.57
2019-05-29T16:37:17.297Z,2.80
2019-05-29T16:39:22.738Z,2.70
2019-05-29T16:41:27.802Z,1.80
2019-05-29T16:43:32.985Z,2.27
2019-05-29T16:45:37.753Z,2.20
2019-05-29T16:47:42.771Z,2.30
2019-05-29T16:49:47.525Z,2.43
2019-05-29T16:51:52.399Z,2.00
2019-05-29T16:53:57.256Z,1.80
2019-05-29T16:56:02.072Z,1.90
2019-05-29T16:58:06.923Z,1.97
2019-05-29T17:00:13.549Z,1.67
2019-05-29T17:02:19.654Z,2.00
2019-05-29T17:04:25.298Z,1.97
2019-05-29T17:06:30.076Z,1.90
2019-05-29T17:08:34.964Z,2.40
2019-05-29T17:10:40.133Z,2.00
2019-05-29T17:12:45.102Z,2.37
2019-05-29T17:14:50.298Z,2.70
2019-05-29T17:16:55.454Z,1.53
2019-05-29T17:19:01.397Z,2.20
2019-05-29T17:21:06.357Z,2.15
2019-05-29T17:23:11.938Z,2.23
2019-05-29T17:25:18.857Z,2.43
2019-05-29T17:27:25.067Z,2.60
2019-05-29T17:29:30.100Z,3.60
2019-05-29T17:31:35.056Z,2.20
2019-05-29T17:33:39.940Z,2.10
2019-05-29T17:35:44.684Z,1.83
2019-05-29T17:37:49.729Z,2.80
2019-05-29T17:39:54.555Z,2.27
2019-05-29T17:42:00.025Z,2.43
2019-05-29T17:44:05.038Z,2.00
2019-05-29T17:46:10.244Z,2.63
2019-05-29T17:48:15.514Z,2.07
2019-05-29T17:50:22.919Z,2.37
2019-05-29T17:52:26.980Z,11.87
2019-05-29T17:54:32.485Z,8.83
2019-05-29T17:56:37.794Z,4.17
2019-05-29T17:58:43.123Z,4.00
2019-05-29T18:00:48.867Z,3.45
2019-05-29T18:02:53.856Z,4.73
2019-05-29T18:04:58.833Z,3.47
2019-05-29T18:07:03.886Z,3.90
2019-05-29T18:09:09.068Z,3.10
2019-05-29T18:11:14.119Z,2.73
2019-05-29T18:13:19.084Z,3.30
2019-05-29T18:15:25.624Z,2.83
2019-05-29T18:17:30.915Z,3.20
2019-05-29T18:19:35.749Z,3.20
2019-05-29T18:21:40.901Z,3.33
2019-05-29T18:23:45.648Z,3.33
2019-05-29T18:25:50.555Z,3.50
2019-05-29T18:27:55.769Z,4.17
2019-05-29T18:30:00.564Z,3.30
2019-05-29T18:32:05.646Z,4.23
2019-05-29T18:34:10.578Z,3.97
2019-05-29T18:36:15.915Z,4.30
2019-05-29T18:38:22.286Z,3.50
2019-05-29T18:40:28.374Z,3.93
2019-05-29T18:42:33.741Z,4.87
2019-05-29T18:44:38.630Z,4.07
2019-05-29T18:46:43.376Z,4.67
2019-05-29T18:48:48.321Z,4.70
2019-05-29T18:50:53.083Z,5.10
2019-05-29T18:52:57.889Z,5.23
2019-05-29T18:55:03.469Z,4.50
2019-05-29T18:57:15.257Z,4.77
2019-05-29T18:59:15.099Z,4.57
2019-05-29T19:01:21.452Z,4.73
2019-05-29T19:03:27.520Z,4.07
2019-05-29T19:05:32.786Z,4.83
2019-05-29T19:07:37.760Z,4.80
2019-05-29T19:09:42.589Z,4.27
2019-05-29T19:11:47.623Z,4.07
2019-05-29T19:13:52.958Z,4.80
2019-05-29T19:15:57.866Z,4.60
2019-05-29T19:18:03.173Z,4.80
2019-05-29T19:20:09.340Z,4.50
2019-05-29T19:22:14.411Z,4.43
2019-05-29T19:24:19.892Z,4.60
2019-05-29T19:26:24.791Z,4.53
2019-05-29T19:28:30.722Z,4.17
2019-05-29T19:30:44.075Z,4.33
2019-05-29T19:32:51.434Z,4.30
2019-05-29T19:34:57.831Z,4.37
2019-05-29T19:37:02.720Z,4.43
2019-05-29T19:39:11.197Z,4.47
2019-05-29T19:41:20.545Z,4.53
2019-05-29T19:43:26.253Z,4.27
2019-05-29T19:45:32.605Z,4.30
2019-05-29T19:47:37.563Z,4.37
2019-05-29T19:49:43.125Z,4.90
2019-05-29T19:51:47.956Z,4.90
2019-05-29T19:53:52.666Z,4.53
2019-05-29T19:55:59.430Z,4.50
2019-05-29T19:58:04.311Z,4.23
2019-05-29T20:00:09.795Z,4.60
2019-05-29T20:02:15.138Z,5.00
2019-05-29T20:04:20.290Z,4.77
2019-05-29T20:06:28.766Z,4.40
2019-05-29T20:08:36.254Z,4.90
2019-05-29T20:10:41.067Z,5.60
2019-05-29T20:12:46.038Z,5.60
2019-05-29T20:14:50.893Z,5.97
2019-05-29T20:16:56.189Z,5.97
2019-05-29T20:19:02.127Z,4.93
2019-05-29T20:21:06.898Z,5.20
2019-05-29T20:23:12.509Z,5.43
2019-05-29T20:25:17.828Z,5.27
2019-05-29T20:27:22.913Z,4.83
2019-05-29T20:29:27.755Z,5.60
2019-05-29T20:31:34.467Z,6.17
2019-05-29T20:33:42.740Z,5.20
2019-05-29T20:35:47.745Z,6.27
2019-05-29T20:37:53.719Z,5.27
2019-05-29T20:39:59.005Z,5.70
2019-05-29T20:42:04.388Z,5.33
2019-05-29T20:44:10.541Z,5.00
2019-05-29T20:46:15.849Z,5.00
2019-05-29T20:48:21.169Z,4.77
2019-05-29T20:50:26.125Z,5.37
2019-05-29T20:52:31.242Z,5.23
2019-05-29T20:54:37.672Z,5.58
2019-05-29T20:56:42.645Z,5.10
2019-05-29T20:58:47.893Z,5.53
2019-05-29T21:00:54.367Z,4.87
2019-05-29T21:03:07.054Z,5.23
2019-05-29T21:05:12.115Z,4.90
2019-05-29T21:07:17.209Z,5.10
2019-05-29T21:09:22.703Z,5.30
2019-05-29T21:11:27.611Z,4.97
2019-05-29T21:13:33.315Z,5.33
2019-05-29T21:15:38.135Z,5.17
2019-05-29T21:17:44.069Z,5.47
2019-05-29T21:19:49.066Z,5.17
2019-05-29T21:21:53.892Z,5.23
2019-05-29T21:23:58.902Z,5.93
2019-05-29T21:26:03.739Z,6.13
2019-05-29T21:28:08.568Z,6.27
2019-05-29T21:30:13.971Z,5.63
2019-05-29T21:32:19.639Z,5.60
2019-05-29T21:34:24.569Z,5.60
2019-05-29T21:36:29.389Z,5.93
2019-05-29T21:38:34.213Z,5.70
2019-05-29T21:40:40.301Z,5.83
2019-05-29T21:42:45.220Z,5.47
2019-05-29T21:44:50.085Z,6.03
2019-05-29T21:46:55.434Z,5.53
2019-05-29T21:49:00.673Z,5.63
2019-05-29T21:51:05.878Z,5.40
2019-05-29T21:53:11.133Z,5.57
2019-05-29T21:55:17.027Z,5.40
2019-05-29T21:57:21.912Z,5.67
2019-05-29T21:59:26.840Z,5.13
2019-05-29T22:01:31.971Z,4.97
2019-05-29T22:03:38.225Z,5.10
2019-05-29T22:05:43.198Z,4.40
2019-05-29T22:07:48.966Z,4.97
2019-05-29T22:09:54.464Z,4.90
2019-05-29T22:12:00.508Z,4.50
2019-05-29T22:14:05.811Z,4.10
2019-05-29T22:16:10.775Z,4.00
2019-05-29T22:18:15.594Z,4.47
2019-05-29T22:20:20.566Z,4.80
2019-05-29T22:22:25.554Z,4.63
2019-05-29T22:24:30.357Z,4.77
2019-05-29T22:26:35.098Z,4.37
2019-05-29T22:28:39.844Z,4.70
2019-05-29T22:30:44.668Z,4.27
2019-05-29T22:32:49.555Z,4.40
2019-05-29T22:34:55.432Z,4.50
2019-05-29T22:37:00.264Z,4.50
2019-05-29T22:39:06.396Z,5.10
2019-05-29T22:41:11.208Z,4.00
2019-05-29T22:43:15.977Z,4.57
2019-05-29T22:45:20.802Z,4.17
2019-05-29T22:47:25.635Z,4.13
2019-05-29T22:49:30.444Z,4.40
2019-05-29T22:51:36.373Z,4.50
2019-05-29T22:53:41.165Z,5.03
2019-05-29T22:55:45.948Z,3.97
2019-05-29T22:57:51.833Z,3.63
2019-05-29T22:59:57.872Z,4.10
2019-05-29T23:02:02.705Z,4.13
2019-05-29T23:04:07.758Z,4.40
2019-05-29T23:06:12.567Z,4.60
2019-05-29T23:08:17.378Z,4.07
2019-05-29T23:10:22.197Z,4.33
2019-05-29T23:12:26.964Z,3.93
2019-05-29T23:14:31.864Z,3.67
2019-05-29T23:16:36.680Z,3.93
2019-05-29T23:18:42.099Z,4.33
2019-05-29T23:20:47.018Z,4.00
2019-05-29T23:22:52.583Z,4.23
2019-05-29T23:24:58.722Z,4.03
2019-05-29T23:27:04.211Z,4.00
2019-05-29T23:29:09.004Z,3.90
2019-05-29T23:31:13.814Z,4.13
2019-05-29T23:33:18.597Z,3.90
2019-05-29T23:35:23.407Z,3.87
2019-05-29T23:37:28.215Z,4.30
2019-05-29T23:39:33.322Z,3.47
2019-05-29T23:41:38.136Z,4.10
2019-05-29T23:43:42.970Z,4.20
2019-05-29T23:45:48.099Z,3.73
2019-05-29T23:47:53.392Z,4.00
2019-05-29T23:49:59.615Z,4.30
2019-05-29T23:52:05.048Z,3.70
2019-05-29T23:54:10.328Z,4.00
2019-05-29T23:56:16.248Z,4.30
2019-05-29T23:58:21.106Z,3.53
